• Join FlightAware (Why Join?)
  • Login
  • US Flag 
05:36PM EDT


 

Airport Tracker/Info


-or-


 

Live Flight TrackerFlight Track Log ✈ LIA553 ✈ 09-May-2013 ✈ TIST / STT - TNCM / SXM

Flight Track Log - Related Links

Times and Time Zones

All times are in EDT time to prevent confusion due to time zone crossing. See the LIA553 flight status page for this flight to view local times or setup timezone preferences in your user account.

Time Position Orientation Groundspeed Altitude Reporting Facility
EDT Latitude Longitude Course Direction KTS MPH feet Rate Location/Type
02:57PM 18.3333 -65.0000 205° Southwest 150 173 1,200  Level San Juan Center
02:58PM 18.3000 -65.0167 205° Southwest 150 173 2,800 1,440 Climbing San Juan Center
02:59PM 18.3000 -64.9833 90° East 140 161 4,200 1,260 Climbing San Juan Center
03:00PM 18.3000 -64.9333 90° East 150 173 5,400 1,140 Climbing San Juan Center
03:02PM 18.3000 -64.8833 90° East 180 207 6,600 1,140 Climbing San Juan Center
03:03PM 18.3000 -64.8333 90° East 180 207 7,800 1,080 Climbing San Juan Center
03:04PM 18.3167 -64.7833 71° East 190 219 8,800 960 Climbing San Juan Center
03:05PM 18.3167 -64.7167 90° East 190 219 9,800 900 Climbing San Juan Center
03:06PM 18.3167 -64.6500 90° East 210 242 10,700 600 Climbing San Juan Center
03:07PM 18.3167 -64.6000 90° East 220 253 11,000 120 Climbing San Juan Center
03:08PM 18.3167 -64.5333 90° East 250 288 11,000  Level San Juan Center
03:09PM 18.3333 -64.4500 78° East 260 299 11,000  Level San Juan Center
03:10PM 18.3333 -64.3667 90° East 260 299 11,000  Level San Juan Center
03:11PM 18.3333 -64.2833 90° East 260 299 11,000  Level San Juan Center
03:12PM 18.3500 -64.2167 75° East 260 299 11,000  Level San Juan Center
03:13PM 18.3500 -64.1333 90° East 270 311 11,000  Level San Juan Center
03:14PM 18.3500 -64.0667 90° East 260 299 11,000  Level San Juan Center
03:15PM 18.3500 -63.9833 90° East 270 311 11,000  Level San Juan Center
03:16PM 18.3667 -63.9000 78° East 270 311 11,000  Level San Juan Center
03:17PM 18.3667 -63.8167 90° East 270 311 11,000  Level San Juan Center
03:18PM 18.3667 -63.7500 90° East 260 299 11,000  Level San Juan Center
03:19PM 18.3833 -63.6667 78° East 270 311 11,100 60 Climbing San Juan Center
03:21PM 18.3241 -63.5699 123° Southeast  Level Estimated
03:28PM 18.1056 -63.2138 123° Southeast  Level Estimated
03:29PM 18.0743 -63.1630 123° Southeast  Level Estimated
03:30PM 18.0430 -63.1123 123° Southeast  Level Estimated
03:31PM 18.0410 -63.1089 123° Southeast  Level Estimated
03:32PM 18.0410 -63.1089 North  Level Estimated
03:33PM 18.0410 -63.1089 North  Level Estimated
03:34PM 18.0410 -63.1089 North  Level Estimated
03:35PM 18.0410 -63.1089 North  Level Estimated
03:36PM 18.0410 -63.1089 North  Level Estimated
03:37PM 18.0410 -63.1089 North  Level Estimated
03:38PM 18.0410 -63.1089 North  Level Estimated
03:39PM 18.0410 -63.1089 North  Level Estimated
03:40PM 18.0410 -63.1089 North  Level Estimated
03:41PM 18.0410 -63.1089 North  Level Estimated
03:42PM 18.0410 -63.1089 North  Level Estimated